sensor_id;sensor_type;location;lat;lon;timestamp;pressure;altitude;pressure_sealevel;temperature;humidity
72896;BME280;61036;53.224;6.554;2024-03-02T00:02:24;98626.34;;;7.53;100.00
72896;BME280;61036;53.224;6.554;2024-03-02T00:04:50;98631.47;;;7.46;100.00
72896;BME280;61036;53.224;6.554;2024-03-02T00:07:16;98607.56;;;7.53;100.00
72896;BME280;61036;53.224;6.554;2024-03-02T00:09:42;98590.66;;;7.43;100.00
72896;BME280;61036;53.224;6.554;2024-03-02T00:12:10;98578.19;;;7.51;100.00
72896;BME280;61036;53.224;6.554;2024-03-02T00:14:37;98566.41;;;7.44;100.00
72896;BME280;61036;53.224;6.554;2024-03-02T00:17:02;98561.34;;;7.41;100.00
72896;BME280;61036;53.224;6.554;2024-03-02T00:19:28;98543.41;;;7.42;100.00
72896;BME280;61036;53.224;6.554;2024-03-02T00:21:54;98556.97;;;7.40;100.00
72896;BME280;61036;53.224;6.554;2024-03-02T00:24:21;98534.94;;;7.46;100.00
72896;BME280;61036;53.224;6.554;2024-03-02T00:26:50;98529.91;;;7.33;100.00
72896;BME280;61036;53.224;6.554;2024-03-02T00:29:17;98541.56;;;7.42;100.00
72896;BME280;61036;53.224;6.554;2024-03-02T00:31:44;98532.59;;;7.33;100.00
72896;BME280;61036;53.224;6.554;2024-03-02T00:34:12;98524.22;;;7.19;100.00
72896;BME280;61036;53.224;6.554;2024-03-02T00:36:39;98505.00;;;7.23;100.00
72896;BME280;61036;53.224;6.554;2024-03-02T00:39:05;98496.44;;;7.20;100.00
72896;BME280;61036;53.224;6.554;2024-03-02T00:41:33;98478.59;;;7.28;100.00
72896;BME280;61036;53.224;6.554;2024-03-02T00:44:00;98488.69;;;7.17;100.00
72896;BME280;61036;53.224;6.554;2024-03-02T00:46:41;98483.78;;;7.30;100.00
72896;BME280;61036;53.224;6.554;2024-03-02T00:51:47;98477.72;;;7.28;100.00
72896;BME280;61036;53.224;6.554;2024-03-02T00:54:20;98477.59;;;7.29;100.00
72896;BME280;61036;53.224;6.554;2024-03-02T00:56:47;98494.84;;;7.45;100.00
72896;BME280;61036;53.224;6.554;2024-03-02T00:59:12;98525.41;;;7.52;100.00
72896;BME280;61036;53.224;6.554;2024-03-02T01:01:38;98544.00;;;7.36;100.00
72896;BME280;61036;53.224;6.554;2024-03-02T01:04:04;98513.28;;;7.30;100.00
72896;BME280;61036;53.224;6.554;2024-03-02T01:06:30;98539.97;;;7.49;100.00
72896;BME280;61036;53.224;6.554;2024-03-02T01:08:56;98542.25;;;7.44;100.00
72896;BME280;61036;53.224;6.554;2024-03-02T01:11:21;98518.22;;;7.35;100.00
72896;BME280;61036;53.224;6.554;2024-03-02T01:13:47;98504.56;;;7.46;100.00
72896;BME280;61036;53.224;6.554;2024-03-02T01:16:13;98495.97;;;7.42;100.00
72896;BME280;61036;53.224;6.554;2024-03-02T01:18:39;98475.13;;;7.36;100.00
72896;BME280;61036;53.224;6.554;2024-03-02T01:21:04;98466.25;;;7.36;100.00
72896;BME280;61036;53.224;6.554;2024-03-02T01:23:30;98455.09;;;7.40;100.00
72896;BME280;61036;53.224;6.554;2024-03-02T01:25:55;98441.44;;;7.33;100.00
72896;BME280;61036;53.224;6.554;2024-03-02T01:28:21;98438.09;;;7.31;100.00
72896;BME280;61036;53.224;6.554;2024-03-02T01:30:47;98428.34;;;7.30;100.00
72896;BME280;61036;53.224;6.554;2024-03-02T01:33:13;98412.41;;;7.29;100.00
72896;BME280;61036;53.224;6.554;2024-03-02T01:35:39;98422.91;;;7.40;100.00
72896;BME280;61036;53.224;6.554;2024-03-02T01:38:04;98428.28;;;7.40;100.00
72896;BME280;61036;53.224;6.554;2024-03-02T01:40:34;98435.00;;;7.44;100.00
72896;BME280;61036;53.224;6.554;2024-03-02T01:42:59;98425.66;;;7.30;100.00
72896;BME280;61036;53.224;6.554;2024-03-02T01:45:25;98424.69;;;7.31;100.00
72896;BME280;61036;53.224;6.554;2024-03-02T01:47:50;98434.00;;;7.45;100.00
72896;BME280;61036;53.224;6.554;2024-03-02T01:50:24;98447.78;;;7.50;100.00
72896;BME280;61036;53.224;6.554;2024-03-02T01:52:50;98448.25;;;7.46;100.00
72896;BME280;61036;53.224;6.554;2024-03-02T01:55:15;98453.16;;;7.50;100.00
72896;BME280;61036;53.224;6.554;2024-03-02T01:57:41;98451.53;;;7.57;100.00
72896;BME280;61036;53.224;6.554;2024-03-02T02:00:07;98463.41;;;7.55;100.00
72896;BME280;61036;53.224;6.554;2024-03-02T02:02:37;98478.44;;;7.48;100.00
72896;BME280;61036;53.224;6.554;2024-03-02T02:05:03;98463.09;;;7.58;100.00
72896;BME280;61036;53.224;6.554;2024-03-02T02:07:29;98472.78;;;7.51;100.00
72896;BME280;61036;53.224;6.554;2024-03-02T02:09:54;98468.47;;;7.58;100.00
72896;BME280;61036;53.224;6.554;2024-03-02T02:12:20;98468.63;;;7.56;100.00
72896;BME280;61036;53.224;6.554;2024-03-02T02:14:49;98459.25;;;7.78;100.00
72896;BME280;61036;53.224;6.554;2024-03-02T02:17:18;98457.38;;;7.71;100.00
72896;BME280;61036;53.224;6.554;2024-03-02T02:19:43;98456.13;;;7.65;100.00
72896;BME280;61036;53.224;6.554;2024-03-02T02:22:12;98440.03;;;7.65;100.00
72896;BME280;61036;53.224;6.554;2024-03-02T02:24:41;98461.59;;;7.73;100.00
72896;BME280;61036;53.224;6.554;2024-03-02T02:27:10;98437.88;;;7.69;100.00
72896;BME280;61036;53.224;6.554;2024-03-02T02:29:36;98491.97;;;7.82;100.00
72896;BME280;61036;53.224;6.554;2024-03-02T02:32:02;98500.34;;;7.79;100.00
72896;BME280;61036;53.224;6.554;2024-03-02T02:34:28;98494.97;;;7.79;100.00
72896;BME280;61036;53.224;6.554;2024-03-02T02:36:53;98503.41;;;7.66;100.00
72896;BME280;61036;53.224;6.554;2024-03-02T02:39:21;98483.94;;;7.82;100.00
72896;BME280;61036;53.224;6.554;2024-03-02T02:41:48;98512.78;;;7.80;100.00
72896;BME280;61036;53.224;6.554;2024-03-02T02:44:13;98506.78;;;7.86;100.00
72896;BME280;61036;53.224;6.554;2024-03-02T02:46:40;98494.00;;;7.80;100.00
72896;BME280;61036;53.224;6.554;2024-03-02T02:49:06;98508.00;;;7.92;100.00
72896;BME280;61036;53.224;6.554;2024-03-02T02:51:31;98543.94;;;7.99;100.00
72896;BME280;61036;53.224;6.554;2024-03-02T02:53:57;98546.94;;;7.96;100.00
72896;BME280;61036;53.224;6.554;2024-03-02T02:56:23;98560.22;;;7.97;100.00
72896;BME280;61036;53.224;6.554;2024-03-02T02:58:48;98552.22;;;8.06;100.00
72896;BME280;61036;53.224;6.554;2024-03-02T03:01:15;98580.75;;;8.24;100.00
72896;BME280;61036;53.224;6.554;2024-03-02T03:03:43;98607.22;;;8.19;100.00
72896;BME280;61036;53.224;6.554;2024-03-02T03:06:10;98613.59;;;8.18;100.00
72896;BME280;61036;53.224;6.554;2024-03-02T03:08:35;98624.47;;;8.17;100.00
72896;BME280;61036;53.224;6.554;2024-03-02T03:11:01;98657.75;;;8.24;100.00
72896;BME280;61036;53.224;6.554;2024-03-02T03:13:26;98637.50;;;8.30;100.00
72896;BME280;61036;53.224;6.554;2024-03-02T03:15:52;98660.81;;;8.29;100.00
72896;BME280;61036;53.224;6.554;2024-03-02T03:18:18;98667.72;;;8.32;100.00
72896;BME280;61036;53.224;6.554;2024-03-02T03:20:44;98663.50;;;8.29;100.00
72896;BME280;61036;53.224;6.554;2024-03-02T03:23:09;98669.69;;;8.39;100.00
72896;BME280;61036;53.224;6.554;2024-03-02T03:25:35;98652.97;;;8.36;100.00
72896;BME280;61036;53.224;6.554;2024-03-02T03:28:00;98658.31;;;8.28;100.00
72896;BME280;61036;53.224;6.554;2024-03-02T03:30:27;98692.53;;;8.43;100.00
72896;BME280;61036;53.224;6.554;2024-03-02T03:32:52;98695.22;;;8.43;100.00
72896;BME280;61036;53.224;6.554;2024-03-02T03:35:18;98683.53;;;8.35;100.00
72896;BME280;61036;53.224;6.554;2024-03-02T03:37:44;98677.75;;;8.39;100.00
72896;BME280;61036;53.224;6.554;2024-03-02T03:40:10;98659.06;;;8.38;100.00
72896;BME280;61036;53.224;6.554;2024-03-02T03:42:36;98653.69;;;8.38;100.00
72896;BME280;61036;53.224;6.554;2024-03-02T03:45:03;98641.63;;;8.24;100.00
72896;BME280;61036;53.224;6.554;2024-03-02T03:47:28;98620.31;;;8.22;100.00
72896;BME280;61036;53.224;6.554;2024-03-02T03:49:54;98610.66;;;8.12;100.00
72896;BME280;61036;53.224;6.554;2024-03-02T03:52:19;98592.56;;;8.14;100.00
72896;BME280;61036;53.224;6.554;2024-03-02T03:54:46;98585.22;;;8.16;100.00
72896;BME280;61036;53.224;6.554;2024-03-02T03:57:12;98565.91;;;7.94;100.00
72896;BME280;61036;53.224;6.554;2024-03-02T03:59:37;98550.69;;;8.03;100.00
72896;BME280;61036;53.224;6.554;2024-03-02T04:02:03;98539.59;;;7.98;100.00
72896;BME280;61036;53.224;6.554;2024-03-02T04:04:29;98537.25;;;8.03;100.00
72896;BME280;61036;53.224;6.554;2024-03-02T04:06:54;98545.94;;;7.97;100.00
72896;BME280;61036;53.224;6.554;2024-03-02T04:09:20;98556.22;;;8.01;100.00
72896;BME280;61036;53.224;6.554;2024-03-02T04:11:45;98545.88;;;8.07;100.00
72896;BME280;61036;53.224;6.554;2024-03-02T04:14:11;98550.53;;;8.05;100.00
72896;BME280;61036;53.224;6.554;2024-03-02T04:16:38;98525.16;;;7.99;100.00
72896;BME280;61036;53.224;6.554;2024-03-02T04:19:04;98512.69;;;7.90;100.00
72896;BME280;61036;53.224;6.554;2024-03-02T04:21:30;98499.56;;;7.87;100.00
72896;BME280;61036;53.224;6.554;2024-03-02T04:23:55;98508.00;;;7.92;100.00
72896;BME280;61036;53.224;6.554;2024-03-02T04:26:27;98511.91;;;7.97;100.00
72896;BME280;61036;53.224;6.554;2024-03-02T04:28:53;98515.25;;;7.99;100.00
72896;BME280;61036;53.224;6.554;2024-03-02T04:31:19;98504.28;;;8.11;100.00
72896;BME280;61036;53.224;6.554;2024-03-02T04:33:45;98511.13;;;8.05;100.00
72896;BME280;61036;53.224;6.554;2024-03-02T04:36:10;98530.28;;;8.10;100.00
72896;BME280;61036;53.224;6.554;2024-03-02T04:38:36;98530.56;;;8.25;100.00
72896;BME280;61036;53.224;6.554;2024-03-02T04:41:02;98539.72;;;7.96;100.00
72896;BME280;61036;53.224;6.554;2024-03-02T04:43:27;98536.44;;;8.02;100.00
72896;BME280;61036;53.224;6.554;2024-03-02T04:45:53;98525.53;;;8.22;100.00
72896;BME280;61036;53.224;6.554;2024-03-02T04:48:19;98549.81;;;8.20;100.00
72896;BME280;61036;53.224;6.554;2024-03-02T04:50:47;98553.63;;;8.10;100.00
72896;BME280;61036;53.224;6.554;2024-03-02T04:53:12;98551.47;;;8.13;100.00
72896;BME280;61036;53.224;6.554;2024-03-02T04:55:39;98540.44;;;7.98;100.00
72896;BME280;61036;53.224;6.554;2024-03-02T04:58:04;98531.75;;;8.05;100.00
72896;BME280;61036;53.224;6.554;2024-03-02T05:00:30;98533.59;;;8.04;100.00
72896;BME280;61036;53.224;6.554;2024-03-02T05:02:56;98517.03;;;7.91;100.00
72896;BME280;61036;53.224;6.554;2024-03-02T05:05:21;98518.75;;;7.92;100.00
72896;BME280;61036;53.224;6.554;2024-03-02T05:07:47;98524.31;;;7.98;100.00
72896;BME280;61036;53.224;6.554;2024-03-02T05:10:12;98520.09;;;7.96;100.00
72896;BME280;61036;53.224;6.554;2024-03-02T05:12:38;98531.97;;;8.11;100.00
72896;BME280;61036;53.224;6.554;2024-03-02T05:15:13;98540.53;;;8.15;100.00
72896;BME280;61036;53.224;6.554;2024-03-02T05:17:40;98537.09;;;8.22;100.00
72896;BME280;61036;53.224;6.554;2024-03-02T05:20:07;98526.81;;;8.18;100.00
72896;BME280;61036;53.224;6.554;2024-03-02T05:22:33;98528.16;;;7.96;100.00
72896;BME280;61036;53.224;6.554;2024-03-02T05:25:00;98534.50;;;8.13;100.00
72896;BME280;61036;53.224;6.554;2024-03-02T05:27:26;98558.69;;;7.95;100.00
72896;BME280;61036;53.224;6.554;2024-03-02T05:29:52;98538.13;;;8.04;100.00
72896;BME280;61036;53.224;6.554;2024-03-02T05:32:17;98533.22;;;7.99;100.00
72896;BME280;61036;53.224;6.554;2024-03-02T05:34:43;98531.75;;;8.05;100.00
72896;BME280;61036;53.224;6.554;2024-03-02T05:37:08;98538.59;;;7.99;100.00
72896;BME280;61036;53.224;6.554;2024-03-02T05:39:34;98533.44;;;8.06;100.00
72896;BME280;61036;53.224;6.554;2024-03-02T05:41:59;98529.53;;;8.00;100.00
72896;BME280;61036;53.224;6.554;2024-03-02T05:44:25;98537.50;;;8.10;100.00
72896;BME280;61036;53.224;6.554;2024-03-02T05:46:50;98539.41;;;7.99;100.00
72896;BME280;61036;53.224;6.554;2024-03-02T05:49:16;98534.97;;;8.08;100.00
72896;BME280;61036;53.224;6.554;2024-03-02T05:51:41;98538.06;;;7.95;100.00
72896;BME280;61036;53.224;6.554;2024-03-02T05:54:07;98536.13;;;8.06;100.00
72896;BME280;61036;53.224;6.554;2024-03-02T05:56:32;98527.31;;;7.95;100.00
72896;BME280;61036;53.224;6.554;2024-03-02T05:58:58;98528.69;;;7.99;100.00
72896;BME280;61036;53.224;6.554;2024-03-02T06:01:43;98534.22;;;8.24;100.00
72896;BME280;61036;53.224;6.554;2024-03-02T06:04:09;98558.72;;;8.21;100.00
72896;BME280;61036;53.224;6.554;2024-03-02T06:06:36;98556.13;;;8.11;100.00
72896;BME280;61036;53.224;6.554;2024-03-02T06:09:02;98549.50;;;8.23;100.00
72896;BME280;61036;53.224;6.554;2024-03-02T06:11:36;98547.25;;;8.11;100.00
72896;BME280;61036;53.224;6.554;2024-03-02T06:14:02;98563.94;;;8.22;100.00
72896;BME280;61036;53.224;6.554;2024-03-02T06:16:28;98554.94;;;8.32;100.00
72896;BME280;61036;53.224;6.554;2024-03-02T06:18:55;98536.50;;;8.11;100.00
72896;BME280;61036;53.224;6.554;2024-03-02T06:21:23;98544.41;;;8.12;100.00
72896;BME280;61036;53.224;6.554;2024-03-02T06:23:49;98552.47;;;8.12;100.00
72896;BME280;61036;53.224;6.554;2024-03-02T06:26:14;98543.25;;;7.97;100.00
72896;BME280;61036;53.224;6.554;2024-03-02T06:28:40;98546.09;;;8.13;100.00
72896;BME280;61036;53.224;6.554;2024-03-02T06:31:05;98551.28;;;8.15;100.00
72896;BME280;61036;53.224;6.554;2024-03-02T06:33:31;98549.09;;;8.10;100.00
72896;BME280;61036;53.224;6.554;2024-03-02T06:35:56;98562.22;;;7.95;100.00
72896;BME280;61036;53.224;6.554;2024-03-02T06:38:22;98539.94;;;8.03;100.00
72896;BME280;61036;53.224;6.554;2024-03-02T06:40:48;98548.41;;;7.90;100.00
72896;BME280;61036;53.224;6.554;2024-03-02T06:43:13;98519.41;;;7.94;100.00
72896;BME280;61036;53.224;6.554;2024-03-02T06:45:39;98514.41;;;8.17;100.00
72896;BME280;61036;53.224;6.554;2024-03-02T06:48:04;98540.19;;;8.10;100.00
72896;BME280;61036;53.224;6.554;2024-03-02T06:50:30;98559.59;;;8.04;100.00
72896;BME280;61036;53.224;6.554;2024-03-02T06:52:56;98557.59;;;8.06;100.00
72896;BME280;61036;53.224;6.554;2024-03-02T06:55:22;98562.34;;;8.12;100.00
72896;BME280;61036;53.224;6.554;2024-03-02T06:57:47;98598.31;;;8.19;100.00
72896;BME280;61036;53.224;6.554;2024-03-02T07:00:13;98583.50;;;8.15;100.00
72896;BME280;61036;53.224;6.554;2024-03-02T07:02:39;98583.84;;;8.38;100.00
72896;BME280;61036;53.224;6.554;2024-03-02T07:05:07;98610.97;;;8.44;100.00
72896;BME280;61036;53.224;6.554;2024-03-02T07:07:34;98650.47;;;8.70;100.00
72896;BME280;61036;53.224;6.554;2024-03-02T07:10:00;98702.41;;;9.05;100.00
72896;BME280;61036;53.224;6.554;2024-03-02T07:12:26;98727.84;;;8.66;100.00
72896;BME280;61036;53.224;6.554;2024-03-02T07:14:52;98714.38;;;8.31;100.00
72896;BME280;61036;53.224;6.554;2024-03-02T07:17:32;98669.41;;;8.33;100.00
72896;BME280;61036;53.224;6.554;2024-03-02T07:19:58;98676.44;;;8.43;100.00
72896;BME280;61036;53.224;6.554;2024-03-02T07:22:24;98636.75;;;8.55;100.00
72896;BME280;61036;53.224;6.554;2024-03-02T07:24:50;98655.66;;;8.45;100.00
72896;BME280;61036;53.224;6.554;2024-03-02T07:27:16;98669.88;;;8.28;100.00
72896;BME280;61036;53.224;6.554;2024-03-02T07:29:43;98641.03;;;8.48;100.00
72896;BME280;61036;53.224;6.554;2024-03-02T07:32:09;98667.75;;;8.50;100.00
72896;BME280;61036;53.224;6.554;2024-03-02T07:34:35;98664.00;;;8.42;100.00
72896;BME280;61036;53.224;6.554;2024-03-02T07:37:01;98644.56;;;8.66;100.00
72896;BME280;61036;53.224;6.554;2024-03-02T07:39:27;98689.63;;;8.99;100.00
72896;BME280;61036;53.224;6.554;2024-03-02T07:41:53;98758.22;;;8.85;100.00
72896;BME280;61036;53.224;6.554;2024-03-02T07:44:18;98795.44;;;9.15;100.00
72896;BME280;61036;53.224;6.554;2024-03-02T07:46:48;98753.38;;;9.06;100.00
72896;BME280;61036;53.224;6.554;2024-03-02T07:49:17;98819.50;;;9.43;100.00
72896;BME280;61036;53.224;6.554;2024-03-02T07:51:43;98944.81;;;9.90;100.00
72896;BME280;61036;53.224;6.554;2024-03-02T07:54:09;99054.88;;;10.28;100.00
72896;BME280;61036;53.224;6.554;2024-03-02T07:56:35;99250.63;;;10.38;100.00
72896;BME280;61036;53.224;6.554;2024-03-02T07:59:01;99214.03;;;10.89;100.00
72896;BME280;61036;53.224;6.554;2024-03-02T08:01:31;99526.91;;;12.84;100.00
72896;BME280;61036;53.224;6.554;2024-03-02T08:03:58;99817.06;;;14.93;100.00
72896;BME280;61036;53.224;6.554;2024-03-02T08:06:27;99974.81;;;14.22;100.00
72896;BME280;61036;53.224;6.554;2024-03-02T08:08:54;100045.06;;;16.19;100.00
72896;BME280;61036;53.224;6.554;2024-03-02T08:11:20;100185.50;;;17.02;100.00
72896;BME280;61036;53.224;6.554;2024-03-02T08:13:46;100200.56;;;16.06;100.00
72896;BME280;61036;53.224;6.554;2024-03-02T08:16:11;100213.03;;;16.25;100.00
72896;BME280;61036;53.224;6.554;2024-03-02T08:18:37;100222.78;;;16.93;100.00
72896;BME280;61036;53.224;6.554;2024-03-02T08:21:03;100228.53;;;17.31;100.00
72896;BME280;61036;53.224;6.554;2024-03-02T08:23:28;100238.09;;;17.10;100.00
72896;BME280;61036;53.224;6.554;2024-03-02T08:25:54;100241.47;;;17.37;100.00
72896;BME280;61036;53.224;6.554;2024-03-02T08:28:19;100247.47;;;17.08;100.00
72896;BME280;61036;53.224;6.554;2024-03-02T08:30:45;100249.31;;;14.33;100.00
72896;BME280;61036;53.224;6.554;2024-03-02T08:33:10;100229.41;;;12.75;100.00
72896;BME280;61036;53.224;6.554;2024-03-02T08:35:36;100178.44;;;12.51;100.00
72896;BME280;61036;53.224;6.554;2024-03-02T08:38:03;100188.16;;;13.11;100.00
72896;BME280;61036;53.224;6.554;2024-03-02T08:40:29;100197.09;;;12.45;100.00
72896;BME280;61036;53.224;6.554;2024-03-02T08:42:54;100145.97;;;11.74;100.00
72896;BME280;61036;53.224;6.554;2024-03-02T08:45:20;100031.69;;;10.53;100.00
72896;BME280;61036;53.224;6.554;2024-03-02T08:47:46;99946.78;;;10.98;100.00
72896;BME280;61036;53.224;6.554;2024-03-02T08:50:12;99876.66;;;10.88;100.00
72896;BME280;61036;53.224;6.554;2024-03-02T08:52:37;99875.09;;;11.05;100.00
72896;BME280;61036;53.224;6.554;2024-03-02T08:55:03;99841.53;;;10.49;100.00
72896;BME280;61036;53.224;6.554;2024-03-02T08:57:29;99708.75;;;10.28;100.00
72896;BME280;61036;53.224;6.554;2024-03-02T08:59:54;99672.31;;;10.34;100.00
72896;BME280;61036;53.224;6.554;2024-03-02T09:02:20;99646.31;;;10.13;100.00
72896;BME280;61036;53.224;6.554;2024-03-02T09:04:46;99603.75;;;9.58;100.00
72896;BME280;61036;53.224;6.554;2024-03-02T09:07:11;99578.81;;;10.24;100.00
72896;BME280;61036;53.224;6.554;2024-03-02T09:09:37;99622.50;;;10.57;100.00
72896;BME280;61036;53.224;6.554;2024-03-02T09:12:05;99717.41;;;10.41;100.00
72896;BME280;61036;53.224;6.554;2024-03-02T09:14:31;99710.03;;;10.34;100.00
72896;BME280;61036;53.224;6.554;2024-03-02T09:16:56;99735.50;;;10.10;100.00
72896;BME280;61036;53.224;6.554;2024-03-02T09:19:22;99744.50;;;10.40;100.00
72896;BME280;61036;53.224;6.554;2024-03-02T09:21:47;99753.78;;;10.06;100.00
72896;BME280;61036;53.224;6.554;2024-03-02T09:24:13;99718.09;;;10.14;100.00
72896;BME280;61036;53.224;6.554;2024-03-02T09:26:38;99759.47;;;11.30;100.00
72896;BME280;61036;53.224;6.554;2024-03-02T09:29:04;99839.53;;;10.01;100.00
72896;BME280;61036;53.224;6.554;2024-03-02T09:31:29;99732.41;;;9.65;100.00
72896;BME280;61036;53.224;6.554;2024-03-02T09:33:55;99857.75;;;11.37;100.00
72896;BME280;61036;53.224;6.554;2024-03-02T09:36:21;99985.34;;;11.68;100.00
72896;BME280;61036;53.224;6.554;2024-03-02T09:38:47;99959.78;;;10.64;100.00
72896;BME280;61036;53.224;6.554;2024-03-02T09:41:14;99835.34;;;10.78;100.00
72896;BME280;61036;53.224;6.554;2024-03-02T09:43:40;99954.66;;;12.63;100.00
72896;BME280;61036;53.224;6.554;2024-03-02T09:46:09;100064.47;;;12.46;100.00
72896;BME280;61036;53.224;6.554;2024-03-02T09:48:35;100097.84;;;12.74;100.00
72896;BME280;61036;53.224;6.554;2024-03-02T09:51:00;100119.72;;;12.05;100.00
72896;BME280;61036;53.224;6.554;2024-03-02T09:53:33;100094.78;;;11.72;100.00
72896;BME280;61036;53.224;6.554;2024-03-02T09:55:59;100115.16;;;12.25;100.00
72896;BME280;61036;53.224;6.554;2024-03-02T09:58:25;100155.69;;;12.54;100.00
72896;BME280;61036;53.224;6.554;2024-03-02T10:00:50;100166.31;;;12.75;100.00
72896;BME280;61036;53.224;6.554;2024-03-02T10:03:18;100214.59;;;12.79;100.00
72896;BME280;61036;53.224;6.554;2024-03-02T10:05:43;100174.38;;;11.28;100.00
72896;BME280;61036;53.224;6.554;2024-03-02T10:08:09;100129.78;;;12.51;100.00
72896;BME280;61036;53.224;6.554;2024-03-02T10:10:39;100168.72;;;11.31;100.00
72896;BME280;61036;53.224;6.554;2024-03-02T10:13:10;100117.97;;;11.25;100.00
72896;BME280;61036;53.224;6.554;2024-03-02T10:15:37;100161.13;;;12.25;100.00
72896;BME280;61036;53.224;6.554;2024-03-02T10:18:10;100192.97;;;12.02;100.00
72896;BME280;61036;53.224;6.554;2024-03-02T10:20:37;100205.09;;;12.56;100.00
72896;BME280;61036;53.224;6.554;2024-03-02T10:25:35;100256.25;;;14.63;100.00
72896;BME280;61036;53.224;6.554;2024-03-02T10:28:01;100256.13;;;15.09;100.00
72896;BME280;61036;53.224;6.554;2024-03-02T10:30:27;100255.09;;;15.10;100.00
72896;BME280;61036;53.224;6.554;2024-03-02T10:32:56;100255.00;;;13.67;100.00
72896;BME280;61036;53.224;6.554;2024-03-02T10:35:22;100250.66;;;12.61;100.00
72896;BME280;61036;53.224;6.554;2024-03-02T10:37:49;100206.28;;;11.84;100.00
72896;BME280;61036;53.224;6.554;2024-03-02T10:40:15;100147.38;;;11.58;100.00
72896;BME280;61036;53.224;6.554;2024-03-02T10:42:41;100131.00;;;11.50;100.00
72896;BME280;61036;53.224;6.554;2024-03-02T10:45:09;100132.22;;;11.86;100.00
72896;BME280;61036;53.224;6.554;2024-03-02T10:47:36;100109.84;;;11.55;100.00
72896;BME280;61036;53.224;6.554;2024-03-02T10:50:04;100154.28;;;11.41;100.00
72896;BME280;61036;53.224;6.554;2024-03-02T10:52:37;100139.47;;;11.36;100.00
72896;BME280;61036;53.224;6.554;2024-03-02T10:55:03;100135.72;;;11.17;100.00
72896;BME280;61036;53.224;6.554;2024-03-02T10:57:40;100144.69;;;11.68;100.00
72896;BME280;61036;53.224;6.554;2024-03-02T11:00:08;100169.66;;;12.01;100.00
72896;BME280;61036;53.224;6.554;2024-03-02T11:02:51;100167.53;;;11.64;100.00
72896;BME280;61036;53.224;6.554;2024-03-02T11:05:24;100137.34;;;11.39;100.00
72896;BME280;61036;53.224;6.554;2024-03-02T11:07:53;100141.41;;;11.64;100.00
72896;BME280;61036;53.224;6.554;2024-03-02T11:10:23;100154.31;;;11.61;100.00
72896;BME280;61036;53.224;6.554;2024-03-02T11:12:56;100131.50;;;11.94;100.00
72896;BME280;61036;53.224;6.554;2024-03-02T11:15:25;100148.34;;;11.57;100.00
72896;BME280;61036;53.224;6.554;2024-03-02T11:17:52;100162.59;;;11.69;100.00
72896;BME280;61036;53.224;6.554;2024-03-02T11:20:18;100168.47;;;11.03;100.00
72896;BME280;61036;53.224;6.554;2024-03-02T11:22:45;100169.94;;;11.57;100.00
72896;BME280;61036;53.224;6.554;2024-03-02T11:25:27;100163.91;;;11.84;100.00
72896;BME280;61036;53.224;6.554;2024-03-02T11:33:00;100182.00;;;11.43;100.00
72896;BME280;61036;53.224;6.554;2024-03-02T11:35:26;100168.09;;;11.17;100.00
72896;BME280;61036;53.224;6.554;2024-03-02T11:37:54;100169.28;;;11.65;100.00
72896;BME280;61036;53.224;6.554;2024-03-02T11:40:23;100177.25;;;11.26;100.00
72896;BME280;61036;53.224;6.554;2024-03-02T11:42:49;100166.41;;;11.66;100.00
72896;BME280;61036;53.224;6.554;2024-03-02T11:45:22;100172.06;;;12.23;100.00
72896;BME280;61036;53.224;6.554;2024-03-02T11:47:53;100186.59;;;11.62;100.00
72896;BME280;61036;53.224;6.554;2024-03-02T11:50:49;100181.47;;;12.58;100.00
72896;BME280;61036;53.224;6.554;2024-03-02T11:53:15;100197.84;;;11.67;100.00
72896;BME280;61036;53.224;6.554;2024-03-02T11:55:41;100208.34;;;11.30;100.00
72896;BME280;61036;53.224;6.554;2024-03-02T11:58:09;100213.19;;;11.67;100.00
72896;BME280;61036;53.224;6.554;2024-03-02T12:00:35;100207.56;;;11.49;100.00
72896;BME280;61036;53.224;6.554;2024-03-02T12:03:08;100209.63;;;11.66;100.00
72896;BME280;61036;53.224;6.554;2024-03-02T12:05:35;100226.41;;;11.70;100.00
72896;BME280;61036;53.224;6.554;2024-03-02T12:08:05;100207.75;;;11.57;100.00
72896;BME280;61036;53.224;6.554;2024-03-02T12:10:35;100218.91;;;11.74;100.00
72896;BME280;61036;53.224;6.554;2024-03-02T12:13:03;100217.06;;;11.84;100.00
72896;BME280;61036;53.224;6.554;2024-03-02T12:15:30;100218.84;;;11.64;100.00
72896;BME280;61036;53.224;6.554;2024-03-02T12:17:57;100182.28;;;12.00;100.00
72896;BME280;61036;53.224;6.554;2024-03-02T12:20:24;100207.38;;;11.72;100.00
72896;BME280;61036;53.224;6.554;2024-03-02T12:22:51;100224.09;;;11.56;100.00
72896;BME280;61036;53.224;6.554;2024-03-02T12:25:19;100221.00;;;11.70;100.00
72896;BME280;61036;53.224;6.554;2024-03-02T12:27:45;100213.22;;;11.77;100.00
72896;BME280;61036;53.224;6.554;2024-03-02T12:30:12;100218.69;;;11.96;100.00
72896;BME280;61036;53.224;6.554;2024-03-02T12:32:40;100227.72;;;11.76;100.00
72896;BME280;61036;53.224;6.554;2024-03-02T12:35:06;100222.22;;;11.47;100.00
72896;BME280;61036;53.224;6.554;2024-03-02T12:37:31;100205.06;;;11.57;100.00
72896;BME280;61036;53.224;6.554;2024-03-02T12:39:57;100206.63;;;11.19;100.00
72896;BME280;61036;53.224;6.554;2024-03-02T12:42:24;100206.97;;;11.36;100.00
72896;BME280;61036;53.224;6.554;2024-03-02T12:44:53;100195.47;;;11.84;100.00
72896;BME280;61036;53.224;6.554;2024-03-02T12:47:22;100213.34;;;11.65;100.00
72896;BME280;61036;53.224;6.554;2024-03-02T12:49:48;100216.84;;;11.56;100.00
72896;BME280;61036;53.224;6.554;2024-03-02T12:52:14;100227.19;;;11.51;100.00
72896;BME280;61036;53.224;6.554;2024-03-02T12:54:40;100212.75;;;12.12;100.00
72896;BME280;61036;53.224;6.554;2024-03-02T12:57:05;100226.59;;;12.57;100.00
72896;BME280;61036;53.224;6.554;2024-03-02T12:59:31;100203.78;;;11.92;100.00
72896;BME280;61036;53.224;6.554;2024-03-02T13:01:56;100222.81;;;11.90;100.00